createdAt,value
2019-04-10T00:03:41.735Z,55.26
2019-04-10T00:07:47.952Z,55.45
2019-04-10T00:11:54.692Z,55.47
2019-04-10T00:16:03.476Z,55.51
2019-04-10T00:20:08.010Z,55.60
2019-04-10T00:24:12.258Z,55.57
2019-04-10T00:28:17.038Z,55.71
2019-04-10T00:32:21.660Z,55.70
2019-04-10T00:36:26.845Z,55.45
2019-04-10T00:40:31.228Z,55.45
2019-04-10T00:44:35.469Z,55.84
2019-04-10T00:48:39.823Z,55.87
2019-04-10T00:52:44.235Z,56.03
2019-04-10T00:56:48.592Z,56.00
2019-04-10T01:00:52.943Z,56.22
2019-04-10T01:04:57.209Z,56.16
2019-04-10T01:09:01.461Z,56.27
2019-04-10T01:13:08.364Z,56.44
2019-04-10T01:17:13.661Z,56.44
2019-04-10T01:21:18.242Z,56.37
2019-04-10T01:25:22.428Z,56.47
2019-04-10T01:29:27.271Z,56.53
2019-04-10T01:33:32.501Z,56.53
2019-04-10T01:37:48.664Z,56.52
2019-04-10T01:41:43.896Z,56.73
2019-04-10T01:45:49.547Z,56.61
2019-04-10T01:49:53.864Z,56.96
2019-04-10T01:53:58.502Z,56.97
2019-04-10T01:58:03.817Z,57.19
2019-04-10T02:02:18.294Z,56.91
2019-04-10T02:06:23.196Z,56.81
2019-04-10T02:10:27.991Z,57.09
2019-04-10T02:14:32.354Z,57.28
2019-04-10T02:18:37.292Z,57.12
2019-04-10T02:22:41.749Z,57.28
2019-04-10T02:27:00.274Z,57.29
2019-04-10T02:31:07.197Z,57.46
2019-04-10T02:35:18.900Z,57.46
2019-04-10T02:39:32.019Z,57.57
2019-04-10T02:43:33.685Z,57.61
2019-04-10T02:47:38.926Z,57.75
2019-04-10T02:51:45.157Z,57.85
2019-04-10T02:55:49.443Z,58.02
2019-04-10T02:59:55.847Z,57.98
2019-04-10T03:04:03.403Z,58.24
2019-04-10T03:08:11.022Z,58.14
2019-04-10T03:12:16.624Z,58.31
2019-04-10T03:16:21.623Z,58.33
2019-04-10T03:20:28.313Z,58.46
2019-04-10T03:24:34.042Z,58.31
2019-04-10T03:28:38.891Z,58.51
2019-04-10T03:33:16.154Z,58.52
2019-04-10T03:37:18.120Z,58.66
2019-04-10T03:41:22.378Z,58.71
2019-04-10T03:45:26.619Z,59.12
2019-04-10T03:49:30.853Z,58.79
2019-04-10T03:53:35.193Z,58.83
2019-04-10T03:57:39.597Z,58.77
2019-04-10T04:01:43.768Z,58.83
2019-04-10T04:05:47.980Z,58.65
2019-04-10T04:09:52.326Z,59.03
2019-04-10T04:13:57.685Z,58.74
2019-04-10T04:18:02.565Z,58.84
2019-04-10T04:22:06.905Z,58.94
2019-04-10T04:26:11.229Z,59.00
2019-04-10T04:30:17.082Z,58.92
2019-04-10T04:34:23.573Z,59.01
2019-04-10T04:38:27.809Z,58.88
2019-04-10T04:42:32.999Z,58.86
2019-04-10T04:46:37.340Z,59.05
2019-04-10T04:50:41.675Z,59.23
2019-04-10T04:54:45.888Z,59.25
2019-04-10T04:58:50.112Z,59.48
2019-04-10T05:02:54.390Z,59.28
2019-04-10T05:06:58.641Z,59.33
2019-04-10T05:11:04.327Z,59.50
2019-04-10T05:15:09.579Z,59.34
2019-04-10T05:19:14.384Z,59.09
2019-04-10T05:23:18.737Z,59.54
2019-04-10T05:27:22.961Z,59.34
2019-04-10T05:31:27.730Z,59.75
2019-04-10T05:35:32.075Z,59.23
2019-04-10T05:39:43.209Z,59.26
2019-04-10T05:43:42.613Z,59.25
2019-04-10T05:47:46.870Z,59.08
2019-04-10T05:51:51.034Z,59.05
2019-04-10T05:55:55.869Z,59.04
2019-04-10T06:00:02.722Z,59.42
2019-04-10T06:04:07.325Z,59.58
2019-04-10T06:08:11.904Z,59.52
2019-04-10T06:12:16.272Z,59.47
2019-04-10T06:16:20.561Z,59.36
2019-04-10T06:20:25.122Z,59.16
2019-04-10T06:24:29.969Z,59.57
2019-04-10T06:28:34.599Z,59.56
2019-04-10T06:32:39.757Z,59.45
2019-04-10T06:36:44.065Z,59.48
2019-04-10T06:40:48.343Z,60.21
2019-04-10T06:44:52.579Z,61.03
2019-04-10T06:48:56.855Z,60.78
2019-04-10T06:53:01.374Z,60.46
2019-04-10T06:57:06.341Z,60.96
2019-04-10T07:01:10.693Z,60.65
2019-04-10T07:05:15.114Z,60.66
2019-04-10T07:09:24.716Z,61.07
2019-04-10T07:13:28.118Z,61.81
2019-04-10T07:17:35.589Z,61.11
2019-04-10T07:21:38.703Z,61.22
2019-04-10T07:25:46.953Z,61.06
2019-04-10T07:29:51.573Z,61.00
2019-04-10T07:33:55.400Z,61.12
2019-04-10T07:37:59.756Z,60.78
2019-04-10T07:42:04.198Z,60.77
2019-04-10T07:46:08.472Z,60.77
2019-04-10T07:50:14.123Z,60.84
2019-04-10T07:54:21.265Z,60.70
2019-04-10T07:58:24.586Z,60.73
2019-04-10T08:02:29.655Z,59.99
2019-04-10T08:06:35.024Z,59.88
2019-04-10T08:10:42.045Z,59.71
2019-04-10T08:14:46.374Z,59.37
2019-04-10T08:18:50.645Z,59.46
2019-04-10T08:22:55.399Z,59.69
2019-04-10T08:27:01.186Z,59.02
2019-04-10T08:31:06.492Z,58.65
2019-04-10T08:35:11.306Z,58.53
2019-04-10T08:39:28.442Z,57.88
2019-04-10T08:43:22.449Z,57.48
2019-04-10T08:47:26.976Z,57.96
2019-04-10T08:51:31.539Z,58.06
2019-04-10T08:55:35.823Z,57.70
2019-04-10T08:59:40.275Z,57.58
2019-04-10T09:03:44.686Z,57.69
2019-04-10T09:07:49.270Z,57.41
2019-04-10T09:11:53.560Z,57.80
2019-04-10T09:15:58.393Z,57.70
2019-04-10T09:20:03.155Z,57.43
2019-04-10T09:24:08.205Z,57.03
2019-04-10T09:28:12.573Z,57.42
2019-04-10T09:32:18.018Z,57.45
2019-04-10T09:36:22.721Z,57.75
2019-04-10T09:40:27.933Z,57.45
2019-04-10T09:44:32.520Z,57.45
2019-04-10T09:48:37.879Z,57.14
2019-04-10T09:52:44.273Z,57.04
2019-04-10T09:56:50.611Z,57.34
2019-04-10T10:01:03.030Z,57.39
2019-04-10T10:05:10.991Z,57.39
2019-04-10T10:09:15.230Z,58.38
2019-04-10T10:13:19.442Z,58.11
2019-04-10T10:17:24.393Z,59.27
2019-04-10T10:21:28.697Z,58.76
2019-04-10T10:25:33.374Z,58.49
2019-04-10T10:29:37.703Z,58.62
2019-04-10T10:33:42.421Z,58.55
2019-04-10T10:37:46.670Z,57.96
2019-04-10T10:41:51.171Z,57.88
2019-04-10T10:45:55.515Z,59.34
2019-04-10T10:49:59.748Z,59.34
2019-04-10T10:54:05.320Z,57.88
2019-04-10T10:58:11.114Z,57.82
2019-04-10T11:02:15.749Z,57.84
2019-04-10T11:06:19.991Z,57.74
2019-04-10T11:10:30.101Z,57.39
2019-04-10T11:14:35.478Z,57.12
2019-04-10T11:18:40.365Z,57.12
2019-04-10T11:22:44.981Z,57.01
2019-04-10T11:26:50.417Z,57.07
2019-04-10T11:30:56.094Z,57.07
2019-04-10T11:35:00.408Z,57.01
2019-04-10T11:39:14.497Z,57.18
2019-04-10T11:43:13.574Z,57.43
2019-04-10T11:47:19.902Z,57.70
2019-04-10T11:51:29.649Z,58.09
2019-04-10T11:55:32.993Z,57.60
2019-04-10T11:59:38.393Z,57.47
2019-04-10T12:08:20.986Z,56.39
2019-04-10T12:11:57.348Z,56.02
2019-04-10T12:16:03.012Z,56.28
2019-04-10T12:20:09.786Z,56.20
2019-04-10T12:24:18.215Z,55.97
2019-04-10T12:28:24.187Z,55.96
2019-04-10T12:32:28.623Z,56.33
2019-04-10T12:36:55.867Z,55.94
2019-04-10T12:41:03.410Z,56.08
2019-04-10T12:45:08.577Z,56.19
2019-04-10T12:49:15.064Z,56.02
2019-04-10T12:53:21.835Z,55.92
2019-04-10T12:57:26.680Z,56.67
2019-04-10T13:01:32.964Z,56.31
2019-04-10T13:05:49.838Z,56.33
2019-04-10T13:09:50.480Z,56.72
2019-04-10T13:13:54.739Z,56.84
2019-04-10T13:18:03.828Z,56.97
2019-04-10T13:22:09.577Z,57.27
2019-04-10T13:26:13.830Z,57.45
2019-04-10T13:30:22.120Z,58.03
2019-04-10T13:34:29.048Z,58.12
2019-04-10T13:38:34.484Z,58.12
2019-04-10T13:42:39.368Z,57.84
2019-04-10T13:46:44.618Z,58.25
2019-04-10T13:50:50.801Z,58.25
2019-04-10T13:54:55.419Z,57.96
2019-04-10T13:59:00.538Z,57.72
2019-04-10T14:03:07.604Z,57.76
2019-04-10T14:07:11.836Z,57.59
2019-04-10T14:11:17.317Z,57.87
2019-04-10T14:15:22.280Z,58.07
2019-04-10T14:19:27.874Z,57.94
2019-04-10T14:23:33.268Z,58.70
2019-04-10T14:27:38.684Z,58.61
2019-04-10T14:31:47.361Z,58.61
2019-04-10T14:35:51.718Z,58.67
2019-04-10T14:39:55.993Z,59.73
2019-04-10T14:44:00.590Z,59.43
2019-04-10T14:48:05.766Z,58.87
2019-04-10T14:52:10.723Z,59.28
2019-04-10T14:56:16.359Z,58.65
2019-04-10T15:00:50.259Z,58.50
2019-04-10T15:04:54.789Z,58.50
2019-04-10T15:08:59.875Z,58.67
2019-04-10T15:13:11.318Z,58.88
2019-04-10T15:17:12.606Z,59.08
2019-04-10T15:21:16.917Z,58.84
2019-04-10T15:25:22.921Z,59.18
2019-04-10T15:29:28.074Z,58.67
2019-04-10T15:33:32.412Z,59.41
2019-04-10T15:37:37.448Z,59.41
2019-04-10T15:41:43.479Z,58.72
2019-04-10T15:45:48.398Z,58.55
2019-04-10T15:49:53.540Z,58.78
2019-04-10T15:53:59.050Z,58.59
2019-04-10T15:58:05.128Z,58.15
2019-04-10T16:02:09.363Z,58.26
2019-04-10T16:06:13.616Z,58.58
2019-04-10T16:10:37.084Z,58.81
2019-04-10T16:14:42.295Z,58.95
2019-04-10T16:18:48.604Z,58.94
2019-04-10T16:23:12.261Z,58.80
2019-04-10T16:27:16.767Z,59.35
2019-04-10T16:31:25.981Z,59.35
2019-04-10T16:35:32.794Z,59.45
2019-04-10T16:39:38.302Z,59.61
2019-04-10T16:43:42.499Z,59.62
2019-04-10T16:47:47.228Z,60.07
2019-04-10T16:51:52.437Z,60.75
2019-04-10T16:55:57.138Z,60.88
2019-04-10T17:00:02.750Z,61.12
2019-04-10T17:04:07.219Z,61.41
2019-04-10T17:08:11.925Z,61.79
2019-04-10T17:12:16.459Z,61.65
2019-04-10T17:16:21.772Z,61.52
2019-04-10T17:20:27.249Z,61.46
2019-04-10T17:24:31.475Z,61.37
2019-04-10T17:28:36.479Z,60.98
2019-04-10T17:37:45.677Z,60.77
2019-04-10T17:41:50.295Z,60.77
2019-04-10T17:45:55.143Z,60.67
2019-04-10T17:50:00.286Z,60.67
2019-04-10T17:54:06.197Z,60.43
2019-04-10T17:58:11.581Z,60.29
2019-04-10T18:02:15.825Z,59.98
2019-04-10T18:06:20.065Z,60.08
2019-04-10T18:10:24.723Z,57.65
2019-04-10T18:14:29.278Z,57.65
2019-04-10T18:18:33.587Z,57.86
2019-04-10T18:22:38.470Z,57.79
2019-04-10T18:26:43.708Z,57.51
2019-04-10T18:30:48.224Z,57.15
2019-04-10T18:34:52.567Z,57.15
2019-04-10T18:38:57.712Z,57.48
2019-04-10T18:43:02.358Z,57.14
2019-04-10T18:47:07.014Z,57.23
2019-04-10T18:51:12.506Z,57.13
2019-04-10T18:55:16.956Z,57.03
2019-04-10T18:59:40.496Z,57.03
2019-04-10T19:04:07.714Z,56.45
2019-04-10T19:08:14.335Z,56.53
2019-04-10T19:12:18.840Z,56.23
2019-04-10T19:16:23.602Z,56.35
2019-04-10T19:20:28.995Z,56.03
2019-04-10T19:24:34.064Z,56.03
2019-04-10T19:28:41.946Z,55.71
2019-04-10T19:32:44.335Z,55.39
2019-04-10T19:36:48.663Z,54.99
2019-04-10T19:40:54.166Z,55.11
2019-04-10T19:44:59.430Z,55.47
2019-04-10T19:49:04.006Z,54.33
2019-04-10T19:53:27.053Z,54.46
2019-04-10T19:57:31.366Z,54.46
2019-04-10T20:01:36.066Z,54.55
2019-04-10T20:05:41.507Z,54.53
2019-04-10T20:09:46.427Z,54.04
2019-04-10T20:13:51.251Z,54.11
2019-04-10T20:17:56.617Z,54.43
2019-04-10T20:22:01.088Z,54.21
2019-04-10T20:26:05.387Z,54.18
2019-04-10T20:30:10.010Z,54.07
2019-04-10T20:34:15.745Z,54.62
2019-04-10T20:38:20.113Z,54.60
2019-04-10T20:42:25.213Z,54.97
2019-04-10T20:46:30.519Z,54.90
2019-04-10T20:50:34.931Z,55.65
2019-04-10T20:54:39.206Z,55.57
2019-04-10T20:58:43.401Z,55.81
2019-04-10T21:02:48.847Z,55.74
2019-04-10T21:06:54.398Z,55.67
2019-04-10T21:10:59.101Z,55.69
2019-04-10T21:15:03.420Z,55.37
2019-04-10T21:19:09.453Z,55.00
2019-04-10T21:23:15.048Z,55.39
2019-04-10T21:27:20.698Z,55.21
2019-04-10T21:31:50.438Z,55.04
2019-04-10T21:35:54.738Z,55.15
2019-04-10T21:39:58.992Z,55.12
2019-04-10T21:44:04.273Z,54.44
2019-04-10T21:48:08.638Z,54.66
2019-04-10T21:52:12.817Z,54.22
2019-04-10T21:56:18.060Z,54.81
2019-04-10T22:00:36.815Z,54.57
2019-04-10T22:04:41.354Z,54.48
2019-04-10T22:09:07.700Z,54.42
2019-04-10T22:13:11.910Z,54.49
2019-04-10T22:17:17.073Z,54.46
2019-04-10T22:21:22.765Z,54.02
2019-04-10T22:25:27.698Z,54.57
2019-04-10T22:29:32.706Z,55.01
2019-04-10T22:33:36.904Z,55.09
2019-04-10T22:37:41.150Z,55.22
2019-04-10T22:41:46.192Z,55.31
2019-04-10T22:45:50.807Z,54.94
2019-04-10T22:49:55.685Z,55.32
2019-04-10T22:54:00.346Z,55.34
2019-04-10T22:58:04.610Z,55.75
2019-04-10T23:02:12.061Z,55.59
2019-04-10T23:06:17.289Z,55.65
2019-04-10T23:10:21.570Z,55.66
2019-04-10T23:14:26.875Z,55.40
2019-04-10T23:18:31.766Z,55.69
2019-04-10T23:22:36.089Z,55.63
2019-04-10T23:26:41.590Z,55.45
2019-04-10T23:30:45.890Z,55.48
2019-04-10T23:34:50.109Z,55.25
2019-04-10T23:38:55.336Z,55.44
2019-04-10T23:43:07.993Z,55.44
2019-04-10T23:47:05.748Z,55.50
2019-04-10T23:51:10.596Z,55.43
2019-04-10T23:55:15.545Z,55.17
2019-04-10T23:59:20.555Z,55.35
